createdAt,value
2022-12-03T00:00:22.388Z,969.77
2022-12-03T00:01:23.539Z,969.77
2022-12-03T00:02:23.171Z,969.77
2022-12-03T00:03:23.511Z,969.77
2022-12-03T00:04:23.709Z,969.75
2022-12-03T00:05:24.053Z,969.78
2022-12-03T00:06:26.298Z,969.77
2022-12-03T00:07:24.789Z,969.78
2022-12-03T00:08:25.030Z,969.77
2022-12-03T00:09:25.370Z,969.77
2022-12-03T00:10:25.750Z,969.76
2022-12-03T00:11:26.901Z,969.75
2022-12-03T00:12:26.442Z,969.76
2022-12-03T00:13:26.782Z,969.78
2022-12-03T00:14:27.146Z,969.72
2022-12-03T00:15:27.542Z,969.72
2022-12-03T00:16:28.682Z,969.71
2022-12-03T00:17:28.131Z,969.72
2022-12-03T00:18:28.495Z,969.70
2022-12-03T00:19:28.832Z,969.68
2022-12-03T00:20:29.185Z,969.70
2022-12-03T00:21:29.534Z,969.70
2022-12-03T00:22:29.895Z,969.67
2022-12-03T00:23:30.235Z,969.68
2022-12-03T00:24:30.587Z,969.62
2022-12-03T00:25:30.926Z,969.64
2022-12-03T00:26:31.296Z,969.65
2022-12-03T00:27:31.635Z,969.67
2022-12-03T00:28:31.996Z,969.69
2022-12-03T00:29:32.344Z,969.68
2022-12-03T00:30:32.707Z,969.62
2022-12-03T00:31:33.934Z,969.68
2022-12-03T00:32:33.386Z,969.67
2022-12-03T00:33:33.719Z,969.67
2022-12-03T00:34:34.096Z,969.67
2022-12-03T00:35:34.428Z,969.69
2022-12-03T00:36:35.629Z,969.71
2022-12-03T00:37:35.032Z,969.71
2022-12-03T00:38:35.389Z,969.69
2022-12-03T00:39:35.738Z,969.69
2022-12-03T00:40:36.105Z,969.71
2022-12-03T00:41:37.278Z,969.73
2022-12-03T00:42:36.818Z,969.71
2022-12-03T00:43:37.161Z,969.70
2022-12-03T00:44:37.511Z,969.73
2022-12-03T00:45:37.841Z,969.72
2022-12-03T00:46:39.056Z,969.74
2022-12-03T00:47:38.512Z,969.76
2022-12-03T00:48:38.862Z,969.76
2022-12-03T00:49:39.197Z,969.75
2022-12-03T00:50:39.554Z,969.76
2022-12-03T00:51:39.903Z,969.72
2022-12-03T00:52:40.254Z,969.75
2022-12-03T00:53:40.574Z,969.75
2022-12-03T00:54:40.965Z,969.79
2022-12-03T00:55:41.265Z,969.72
2022-12-03T00:56:41.625Z,969.73
2022-12-03T00:57:41.936Z,969.71
2022-12-03T00:58:42.295Z,969.73
2022-12-03T00:59:42.627Z,969.74
2022-12-03T01:00:42.976Z,969.71
2022-12-03T01:01:44.173Z,969.74
2022-12-03T01:02:43.614Z,969.80
2022-12-03T01:03:43.945Z,969.81
2022-12-03T01:04:44.355Z,969.77
2022-12-03T01:05:44.537Z,969.79
2022-12-03T01:06:45.713Z,969.78
2022-12-03T01:07:45.260Z,969.79
2022-12-03T01:08:45.587Z,969.79
2022-12-03T01:09:45.910Z,969.79
2022-12-03T01:10:46.260Z,969.77
2022-12-03T01:11:47.412Z,969.76
2022-12-03T01:12:46.940Z,969.76
2022-12-03T01:13:47.161Z,969.75
2022-12-03T01:14:47.520Z,969.78
2022-12-03T01:15:47.908Z,969.85
2022-12-03T01:16:48.962Z,969.87
2022-12-03T01:17:48.481Z,969.85
2022-12-03T01:18:48.832Z,969.84
2022-12-03T01:19:49.159Z,969.87
2022-12-03T01:20:49.503Z,969.86
2022-12-03T01:21:49.853Z,969.84
2022-12-03T01:22:50.194Z,969.82
2022-12-03T01:23:50.521Z,969.78
2022-12-03T01:24:51.136Z,969.78
2022-12-03T01:25:51.133Z,969.78
2022-12-03T01:26:51.494Z,969.80
2022-12-03T01:27:51.704Z,969.80
2022-12-03T01:28:52.055Z,969.76
2022-12-03T01:29:52.387Z,969.82
2022-12-03T01:30:52.776Z,969.80
2022-12-03T01:31:53.799Z,969.77
2022-12-03T01:32:53.326Z,969.72
2022-12-03T01:33:53.655Z,969.70
2022-12-03T01:34:54.333Z,969.67
2022-12-03T01:35:54.316Z,969.62
2022-12-03T01:36:55.507Z,969.63
2022-12-03T01:37:54.888Z,969.65
2022-12-03T01:38:55.238Z,969.70
2022-12-03T01:39:55.567Z,969.73
2022-12-03T01:40:55.899Z,969.74
2022-12-03T01:41:59.470Z,969.73
2022-12-03T01:42:56.547Z,969.69
2022-12-03T01:43:56.877Z,969.67
2022-12-03T01:44:57.236Z,969.63
2022-12-03T01:45:57.560Z,969.58
2022-12-03T01:46:57.942Z,969.58
2022-12-03T01:47:59.070Z,969.61
2022-12-03T01:48:58.602Z,969.62
2022-12-03T01:49:58.958Z,969.64
2022-12-03T01:50:59.292Z,969.69
2022-12-03T01:51:59.631Z,969.69
2022-12-03T01:52:59.983Z,969.67
2022-12-03T01:54:00.332Z,969.70
2022-12-03T01:55:00.660Z,969.69
2022-12-03T01:56:01.013Z,969.67
2022-12-03T01:57:01.346Z,969.63
2022-12-03T01:58:01.712Z,969.62
2022-12-03T01:59:02.032Z,969.61
2022-12-03T02:00:02.395Z,969.63
2022-12-03T02:01:02.724Z,969.59
2022-12-03T02:02:03.206Z,969.63
2022-12-03T02:03:04.312Z,969.63
2022-12-03T02:04:03.761Z,969.60
2022-12-03T02:05:03.986Z,969.57
2022-12-03T02:06:04.345Z,969.55
2022-12-03T02:07:04.675Z,969.53
2022-12-03T02:08:05.933Z,969.58
2022-12-03T02:09:05.286Z,969.57
2022-12-03T02:10:05.635Z,969.59
2022-12-03T02:11:05.959Z,969.59
2022-12-03T02:12:06.310Z,969.62
2022-12-03T02:13:07.438Z,969.63
2022-12-03T02:14:06.968Z,969.60
2022-12-03T02:15:07.302Z,969.61
2022-12-03T02:16:07.688Z,969.63
2022-12-03T02:17:07.969Z,969.62
2022-12-03T02:18:09.134Z,969.60
2022-12-03T02:19:08.630Z,969.57
2022-12-03T02:20:08.978Z,969.58
2022-12-03T02:21:09.309Z,969.56
2022-12-03T02:22:09.660Z,969.53
2022-12-03T02:23:10.001Z,969.55
2022-12-03T02:24:10.354Z,969.52
2022-12-03T02:25:10.680Z,969.51
2022-12-03T02:26:11.032Z,969.50
2022-12-03T02:27:11.362Z,969.57
2022-12-03T02:28:11.724Z,969.56
2022-12-03T02:29:12.055Z,969.56
2022-12-03T02:30:12.401Z,969.54
2022-12-03T02:31:12.770Z,969.52
2022-12-03T02:32:13.106Z,969.50
2022-12-03T02:33:14.255Z,969.54
2022-12-03T02:34:13.794Z,969.52
2022-12-03T02:35:14.123Z,969.57
2022-12-03T02:36:14.476Z,969.54
2022-12-03T02:37:14.805Z,969.55
2022-12-03T02:38:16.007Z,969.52
2022-12-03T02:39:15.408Z,969.55
2022-12-03T02:40:15.756Z,969.53
2022-12-03T02:41:16.087Z,969.52
2022-12-03T02:42:16.437Z,969.54
2022-12-03T02:43:18.027Z,969.56
2022-12-03T02:44:17.066Z,969.59
2022-12-03T02:45:17.395Z,969.63
2022-12-03T02:46:17.870Z,969.55
2022-12-03T02:47:18.087Z,969.62
2022-12-03T02:48:19.257Z,969.60
2022-12-03T02:49:18.769Z,969.59
2022-12-03T02:50:19.129Z,969.60
2022-12-03T02:51:19.486Z,969.60
2022-12-03T02:52:19.860Z,969.59
2022-12-03T02:53:20.208Z,969.58
2022-12-03T02:54:20.550Z,969.56
2022-12-03T02:55:20.883Z,969.57
2022-12-03T02:56:21.252Z,969.58
2022-12-03T02:57:21.581Z,969.58
2022-12-03T02:58:21.961Z,969.57
2022-12-03T02:59:22.318Z,969.55
2022-12-03T03:00:22.644Z,969.54
2022-12-03T03:01:23.017Z,969.51
2022-12-03T03:02:23.406Z,969.50
2022-12-03T03:03:24.422Z,969.45
2022-12-03T03:04:23.953Z,969.44
2022-12-03T03:05:24.300Z,969.46
2022-12-03T03:06:24.646Z,969.48
2022-12-03T03:07:25.020Z,969.47
2022-12-03T03:08:26.183Z,969.46
2022-12-03T03:09:25.585Z,969.41
2022-12-03T03:10:25.915Z,969.35
2022-12-03T03:11:26.254Z,969.29
2022-12-03T03:12:26.596Z,969.30
2022-12-03T03:13:28.535Z,969.27
2022-12-03T03:14:27.205Z,969.27
2022-12-03T03:15:27.535Z,969.34
2022-12-03T03:16:28.000Z,969.33
2022-12-03T03:17:28.228Z,969.38
2022-12-03T03:18:29.398Z,969.34
2022-12-03T03:19:28.927Z,969.35
2022-12-03T03:20:29.279Z,969.37
2022-12-03T03:21:29.618Z,969.34
2022-12-03T03:22:29.978Z,969.39
2022-12-03T03:23:31.128Z,969.44
2022-12-03T03:24:30.670Z,969.45
2022-12-03T03:25:30.899Z,969.45
2022-12-03T03:26:31.256Z,969.44
2022-12-03T03:27:31.598Z,969.44
2022-12-03T03:28:31.970Z,969.39
2022-12-03T03:29:32.181Z,969.35
2022-12-03T03:30:32.627Z,969.34
2022-12-03T03:31:32.893Z,969.35
2022-12-03T03:32:33.092Z,969.37
2022-12-03T03:33:35.044Z,969.41
2022-12-03T03:34:33.722Z,969.43
2022-12-03T03:35:34.062Z,969.47
2022-12-03T03:36:34.422Z,969.42
2022-12-03T03:37:34.753Z,969.37
2022-12-03T03:38:35.944Z,969.34
2022-12-03T03:39:35.455Z,969.31
2022-12-03T03:40:35.798Z,969.32
2022-12-03T03:41:36.126Z,969.34
2022-12-03T03:42:36.491Z,969.38
2022-12-03T03:43:37.667Z,969.42
2022-12-03T03:44:37.196Z,969.39
2022-12-03T03:45:37.551Z,969.40
2022-12-03T03:46:37.917Z,969.43
2022-12-03T03:47:38.254Z,969.42
2022-12-03T03:48:39.393Z,969.37
2022-12-03T03:49:38.897Z,969.32
2022-12-03T03:50:39.247Z,969.35
2022-12-03T03:51:39.578Z,969.31
2022-12-03T03:52:39.931Z,969.33
2022-12-03T03:53:40.267Z,969.29
2022-12-03T03:54:40.609Z,969.29
2022-12-03T03:55:40.839Z,969.23
2022-12-03T03:56:41.190Z,969.29
2022-12-03T03:57:41.520Z,969.31
2022-12-03T03:58:41.880Z,969.32
2022-12-03T03:59:42.200Z,969.35
2022-12-03T04:00:42.607Z,969.41
2022-12-03T04:01:42.899Z,969.37
2022-12-03T04:02:43.120Z,969.42
2022-12-03T04:03:44.315Z,969.46
2022-12-03T04:04:43.741Z,969.38
2022-12-03T04:05:44.072Z,969.38
2022-12-03T04:06:44.511Z,969.38
2022-12-03T04:07:44.737Z,969.39
2022-12-03T04:08:46.580Z,969.41
2022-12-03T04:09:45.223Z,969.42
2022-12-03T04:10:45.574Z,969.45
2022-12-03T04:11:45.932Z,969.49
2022-12-03T04:12:46.303Z,969.46
2022-12-03T04:13:48.254Z,969.43
2022-12-03T04:14:46.924Z,969.44
2022-12-03T04:15:47.254Z,969.40
2022-12-03T04:16:47.680Z,969.40
2022-12-03T04:17:47.905Z,969.39
2022-12-03T04:18:48.258Z,969.42
2022-12-03T04:19:50.217Z,969.42
2022-12-03T04:20:48.885Z,969.43
2022-12-03T04:21:49.217Z,969.47
2022-12-03T04:22:49.567Z,969.44
2022-12-03T04:23:49.897Z,969.48
2022-12-03T04:24:50.271Z,969.48
2022-12-03T04:25:50.486Z,969.50
2022-12-03T04:26:50.835Z,969.48
2022-12-03T04:27:51.167Z,969.50
2022-12-03T04:28:51.523Z,969.43
2022-12-03T04:29:51.868Z,969.42
2022-12-03T04:30:52.299Z,969.50
2022-12-03T04:31:52.496Z,969.46
2022-12-03T04:32:52.840Z,969.50
2022-12-03T04:33:53.169Z,969.46
2022-12-03T04:34:54.605Z,969.43
2022-12-03T04:35:53.829Z,969.47
2022-12-03T04:36:54.051Z,969.44
2022-12-03T04:37:54.383Z,969.42
2022-12-03T04:38:54.732Z,969.43
2022-12-03T04:39:55.890Z,969.40
2022-12-03T04:40:55.431Z,969.40
2022-12-03T04:41:55.672Z,969.40
2022-12-03T04:42:56.025Z,969.40
2022-12-03T04:43:56.350Z,969.39
2022-12-03T04:44:57.543Z,969.36
2022-12-03T04:45:56.968Z,969.36
2022-12-03T04:46:57.233Z,969.39
2022-12-03T04:47:57.565Z,969.38
2022-12-03T04:48:57.914Z,969.40
2022-12-03T04:49:59.053Z,969.41
2022-12-03T04:50:58.582Z,969.38
2022-12-03T04:51:58.876Z,969.39
2022-12-03T04:52:59.225Z,969.36
2022-12-03T04:53:59.563Z,969.40
2022-12-03T04:54:59.919Z,969.35
2022-12-03T04:56:00.246Z,969.37
2022-12-03T04:57:00.616Z,969.37
2022-12-03T04:58:00.947Z,969.37
2022-12-03T04:59:01.304Z,969.41
2022-12-03T05:00:01.649Z,969.37
2022-12-03T05:01:02.053Z,969.35
2022-12-03T05:02:02.331Z,969.39
2022-12-03T05:03:02.586Z,969.40
2022-12-03T05:04:02.818Z,969.38
2022-12-03T05:05:04.003Z,969.39
2022-12-03T05:06:03.418Z,969.38
2022-12-03T05:07:03.767Z,969.40
2022-12-03T05:08:04.133Z,969.36
2022-12-03T05:09:04.488Z,969.42
2022-12-03T05:10:05.645Z,969.40
2022-12-03T05:11:05.188Z,969.43
2022-12-03T05:12:05.510Z,969.44
2022-12-03T05:13:05.861Z,969.45
2022-12-03T05:14:06.194Z,969.45
2022-12-03T05:15:07.361Z,969.45
2022-12-03T05:16:06.872Z,969.46
2022-12-03T05:17:07.304Z,969.41
2022-12-03T05:18:07.482Z,969.38
2022-12-03T05:19:07.836Z,969.40
2022-12-03T05:20:08.975Z,969.40
2022-12-03T05:21:08.509Z,969.42
2022-12-03T05:22:08.833Z,969.37
2022-12-03T05:23:09.184Z,969.36
2022-12-03T05:24:09.518Z,969.36
2022-12-03T05:25:09.884Z,969.34
2022-12-03T05:26:10.215Z,969.31
2022-12-03T05:27:10.563Z,969.34
2022-12-03T05:28:10.885Z,969.31
2022-12-03T05:29:11.245Z,969.33
2022-12-03T05:30:11.598Z,969.28
2022-12-03T05:31:11.986Z,969.24
2022-12-03T05:32:12.237Z,969.23
2022-12-03T05:33:12.596Z,969.23
2022-12-03T05:34:12.918Z,969.26
2022-12-03T05:35:14.079Z,969.30
2022-12-03T05:36:13.582Z,969.25
2022-12-03T05:37:13.929Z,969.27
2022-12-03T05:38:14.269Z,969.27
2022-12-03T05:39:14.617Z,969.26
2022-12-03T05:40:15.781Z,969.30
2022-12-03T05:41:15.317Z,969.27
2022-12-03T05:42:15.649Z,969.23
2022-12-03T05:43:16.003Z,969.28
2022-12-03T05:44:20.457Z,969.27
2022-12-03T05:45:17.602Z,969.26
2022-12-03T05:46:17.004Z,969.24
2022-12-03T05:47:17.341Z,969.24
2022-12-03T05:48:17.633Z,969.24
2022-12-03T05:49:17.872Z,969.21
2022-12-03T05:50:19.022Z,969.20
2022-12-03T05:51:18.552Z,969.22
2022-12-03T05:52:18.892Z,969.22
2022-12-03T05:53:19.245Z,969.23
2022-12-03T05:54:19.576Z,969.22
2022-12-03T05:55:19.936Z,969.24
2022-12-03T05:56:20.271Z,969.21
2022-12-03T05:57:20.628Z,969.19
2022-12-03T05:58:20.955Z,969.20
2022-12-03T05:59:21.305Z,969.21
2022-12-03T06:00:21.645Z,969.22
2022-12-03T06:01:22.004Z,969.24
2022-12-03T06:02:22.500Z,969.23
2022-12-03T06:03:22.877Z,969.24
2022-12-03T06:04:23.044Z,969.22
2022-12-03T06:05:24.207Z,969.22
2022-12-03T06:06:23.728Z,969.19
2022-12-03T06:07:24.216Z,969.17
2022-12-03T06:08:24.438Z,969.08
2022-12-03T06:09:24.779Z,969.15
2022-12-03T06:10:26.750Z,969.12
2022-12-03T06:11:25.409Z,969.13
2022-12-03T06:12:25.770Z,969.10
2022-12-03T06:13:26.116Z,969.11
2022-12-03T06:14:26.474Z,969.12
2022-12-03T06:15:27.628Z,969.07
2022-12-03T06:16:27.246Z,969.04
2022-12-03T06:17:27.454Z,969.05
2022-12-03T06:18:27.812Z,969.11
2022-12-03T06:19:28.142Z,969.04
2022-12-03T06:20:29.303Z,969.09
2022-12-03T06:21:28.820Z,969.11
2022-12-03T06:22:29.172Z,969.17
2022-12-03T06:23:29.512Z,969.18
2022-12-03T06:24:29.863Z,969.19
2022-12-03T06:25:31.012Z,969.19
2022-12-03T06:26:30.544Z,969.18
2022-12-03T06:27:30.883Z,969.22
2022-12-03T06:28:31.235Z,969.20
2022-12-03T06:29:31.574Z,969.23
2022-12-03T06:30:31.933Z,969.25
2022-12-03T06:31:32.328Z,969.22
2022-12-03T06:32:32.663Z,969.26
2022-12-03T06:33:33.016Z,969.26
2022-12-03T06:34:33.359Z,969.26
2022-12-03T06:35:34.515Z,969.22
2022-12-03T06:36:34.047Z,969.23
2022-12-03T06:37:34.416Z,969.28
2022-12-03T06:38:34.760Z,969.25
2022-12-03T06:39:35.130Z,969.31
2022-12-03T06:40:36.297Z,969.29
2022-12-03T06:41:35.847Z,969.35
2022-12-03T06:42:36.187Z,969.33
2022-12-03T06:43:36.560Z,969.34
2022-12-03T06:44:36.898Z,969.36
2022-12-03T06:45:42.121Z,969.35
2022-12-03T06:46:38.637Z,969.33
2022-12-03T06:47:37.958Z,969.40
2022-12-03T06:48:38.300Z,969.43
2022-12-03T06:49:38.680Z,969.44
2022-12-03T06:50:39.740Z,969.46
2022-12-03T06:51:39.292Z,969.45
2022-12-03T06:52:39.644Z,969.44
2022-12-03T06:53:40.021Z,969.42
2022-12-03T06:54:40.371Z,969.49
2022-12-03T06:55:40.752Z,969.52
2022-12-03T06:56:45.182Z,969.41
2022-12-03T06:57:41.384Z,969.46
2022-12-03T06:58:41.614Z,969.45
2022-12-03T06:59:41.997Z,969.42
2022-12-03T07:00:42.355Z,969.36
2022-12-03T07:01:42.801Z,969.39
2022-12-03T07:02:43.060Z,969.40
2022-12-03T07:03:43.424Z,969.44
2022-12-03T07:04:46.394Z,969.46
2022-12-03T07:05:44.888Z,969.43
2022-12-03T07:06:44.417Z,969.47
2022-12-03T07:07:44.897Z,969.45
2022-12-03T07:08:45.144Z,969.43
2022-12-03T07:09:45.517Z,969.42
2022-12-03T07:10:46.699Z,969.40
2022-12-03T07:11:46.257Z,969.42
2022-12-03T07:12:46.608Z,969.43
2022-12-03T07:13:46.978Z,969.45
2022-12-03T07:14:47.328Z,969.43
2022-12-03T07:15:49.398Z,969.43
2022-12-03T07:16:47.973Z,969.45
2022-12-03T07:17:48.390Z,969.42
2022-12-03T07:18:48.703Z,969.47
2022-12-03T07:19:49.081Z,969.48
2022-12-03T07:20:50.151Z,969.46
2022-12-03T07:21:49.712Z,969.49
2022-12-03T07:22:50.070Z,969.50
2022-12-03T07:23:50.468Z,969.47
2022-12-03T07:24:51.316Z,969.50
2022-12-03T07:25:52.072Z,969.47
2022-12-03T07:26:51.491Z,969.49
2022-12-03T07:27:51.892Z,969.51
2022-12-03T07:28:52.134Z,969.49
2022-12-03T07:29:52.523Z,969.55
2022-12-03T07:30:52.899Z,969.50
2022-12-03T07:31:53.252Z,969.49
2022-12-03T07:32:53.463Z,969.50
2022-12-03T07:33:53.930Z,969.47
2022-12-03T07:34:54.362Z,969.45
2022-12-03T07:35:55.235Z,969.48
2022-12-03T07:36:54.766Z,969.52
2022-12-03T07:37:55.136Z,969.48
2022-12-03T07:38:55.496Z,969.53
2022-12-03T07:39:55.876Z,969.53
2022-12-03T07:40:57.066Z,969.49
2022-12-03T07:41:56.618Z,969.50
2022-12-03T07:42:56.871Z,969.48
2022-12-03T07:43:57.247Z,969.49
2022-12-03T07:44:57.497Z,969.55
2022-12-03T07:45:58.715Z,969.58
2022-12-03T07:46:58.222Z,969.48
2022-12-03T07:47:58.458Z,969.51
2022-12-03T07:48:58.707Z,969.51
2022-12-03T07:49:59.089Z,969.50
2022-12-03T07:51:00.270Z,969.47
2022-12-03T07:51:59.860Z,969.48
2022-12-03T07:53:00.170Z,969.45
2022-12-03T07:54:00.549Z,969.44
2022-12-03T07:55:00.796Z,969.52
2022-12-03T07:56:01.179Z,969.49
2022-12-03T07:57:02.076Z,969.50
2022-12-03T07:58:01.819Z,969.54
2022-12-03T07:59:02.075Z,969.52
2022-12-03T08:00:02.449Z,969.51
2022-12-03T08:01:02.938Z,969.54
2022-12-03T08:02:03.138Z,969.54
2022-12-03T08:03:03.359Z,969.53
2022-12-03T08:04:03.744Z,969.54
2022-12-03T08:05:03.996Z,969.53
2022-12-03T08:06:05.185Z,969.53
2022-12-03T08:07:04.616Z,969.55
2022-12-03T08:08:05.022Z,969.52
2022-12-03T08:09:05.274Z,969.54
2022-12-03T08:10:05.654Z,969.54
2022-12-03T08:11:06.735Z,969.53
2022-12-03T08:12:06.316Z,969.53
2022-12-03T08:13:06.547Z,969.54
2022-12-03T08:14:06.921Z,969.56
2022-12-03T08:15:07.267Z,969.52
2022-12-03T08:16:08.497Z,969.56
2022-12-03T08:17:07.931Z,969.55
2022-12-03T08:18:08.309Z,969.59
2022-12-03T08:19:08.656Z,969.58
2022-12-03T08:20:09.028Z,969.59
2022-12-03T08:21:10.199Z,969.53
2022-12-03T08:22:09.763Z,969.55
2022-12-03T08:23:10.089Z,969.55
2022-12-03T08:24:10.459Z,969.59
2022-12-03T08:25:10.842Z,969.57
2022-12-03T08:26:11.210Z,969.56
2022-12-03T08:27:11.490Z,969.53
2022-12-03T08:28:11.850Z,969.51
2022-12-03T08:29:12.201Z,969.57
2022-12-03T08:30:12.582Z,969.58
2022-12-03T08:31:12.884Z,969.62
2022-12-03T08:32:13.195Z,969.58
2022-12-03T08:33:13.442Z,969.56
2022-12-03T08:34:13.830Z,969.57
2022-12-03T08:35:14.175Z,969.54
2022-12-03T08:36:15.362Z,969.52
2022-12-03T08:37:14.895Z,969.50
2022-12-03T08:38:15.274Z,969.50
2022-12-03T08:39:15.626Z,969.52
2022-12-03T08:40:16.003Z,969.56
2022-12-03T08:41:17.185Z,969.56
2022-12-03T08:42:16.752Z,969.58
2022-12-03T08:43:16.985Z,969.55
2022-12-03T08:44:17.347Z,969.55
2022-12-03T08:45:17.696Z,969.56
2022-12-03T08:46:18.980Z,969.53
2022-12-03T08:47:18.433Z,969.56
2022-12-03T08:48:18.814Z,969.57
2022-12-03T08:49:19.186Z,969.57
2022-12-03T08:50:19.466Z,969.60
2022-12-03T08:51:20.628Z,969.58
2022-12-03T08:52:20.176Z,969.61
2022-12-03T08:53:20.430Z,969.57
2022-12-03T08:54:20.810Z,969.59
2022-12-03T08:55:21.059Z,969.53
2022-12-03T08:56:21.452Z,969.56
2022-12-03T08:57:21.698Z,969.54
2022-12-03T08:58:22.071Z,969.50
2022-12-03T08:59:22.449Z,969.55
2022-12-03T09:00:22.800Z,969.55
2022-12-03T09:01:23.242Z,969.55
2022-12-03T09:02:23.504Z,969.56
2022-12-03T09:03:23.851Z,969.55
2022-12-03T09:04:24.493Z,969.55
2022-12-03T09:05:24.542Z,969.53
2022-12-03T09:06:25.723Z,969.54
2022-12-03T09:07:25.313Z,969.56
2022-12-03T09:08:25.551Z,969.58
2022-12-03T09:09:25.903Z,969.58
2022-12-03T09:10:26.273Z,969.60
2022-12-03T09:11:27.464Z,969.58
2022-12-03T09:12:27.022Z,969.59
2022-12-03T09:13:27.388Z,969.64
2022-12-03T09:14:27.766Z,969.60
2022-12-03T09:15:28.114Z,969.63
2022-12-03T09:16:29.390Z,969.60
2022-12-03T09:17:28.805Z,969.60
2022-12-03T09:18:29.203Z,969.60
2022-12-03T09:19:29.556Z,969.57
2022-12-03T09:20:29.929Z,969.60
2022-12-03T09:21:31.087Z,969.58
2022-12-03T09:22:30.648Z,969.55
2022-12-03T09:23:30.997Z,969.61
2022-12-03T09:24:31.383Z,969.56
2022-12-03T09:25:31.618Z,969.54
2022-12-03T09:26:32.013Z,969.51
2022-12-03T09:27:32.242Z,969.49
2022-12-03T09:28:32.609Z,969.47
2022-12-03T09:29:32.969Z,969.46
2022-12-03T09:30:33.351Z,969.47
2022-12-03T09:31:33.792Z,969.45
2022-12-03T09:32:34.058Z,969.46
2022-12-03T09:33:34.270Z,969.44
2022-12-03T09:34:34.643Z,969.44
2022-12-03T09:35:35.002Z,969.41
2022-12-03T09:36:36.191Z,969.41
2022-12-03T09:37:35.631Z,969.34
2022-12-03T09:38:36.012Z,969.35
2022-12-03T09:39:36.361Z,969.30
2022-12-03T09:40:36.733Z,969.32
2022-12-03T09:41:37.814Z,969.31
2022-12-03T09:42:37.373Z,969.23
2022-12-03T09:44:04.279Z,969.25
2022-12-03T09:44:39.088Z,969.29
2022-12-03T09:45:38.385Z,969.29
2022-12-03T09:46:46.168Z,969.29
2022-12-03T09:47:39.019Z,969.30
2022-12-03T09:48:39.429Z,969.27
2022-12-03T09:49:39.669Z,969.27
2022-12-03T09:50:40.049Z,969.27
2022-12-03T09:51:40.400Z,969.21
2022-12-03T09:52:40.770Z,969.23
2022-12-03T09:53:41.614Z,969.21
2022-12-03T09:54:46.866Z,969.23
2022-12-03T09:55:42.640Z,969.17
2022-12-03T09:56:41.942Z,969.19
2022-12-03T09:57:42.313Z,969.18
2022-12-03T09:58:42.683Z,969.18
2022-12-03T09:59:43.032Z,969.20
2022-12-03T10:00:43.400Z,969.17
2022-12-03T10:01:43.821Z,969.17
2022-12-03T10:02:44.091Z,969.17
2022-12-03T10:03:44.433Z,969.16
2022-12-03T10:04:44.854Z,969.15
2022-12-03T10:05:48.071Z,969.13
2022-12-03T10:06:46.195Z,969.12
2022-12-03T10:07:45.751Z,969.13
2022-12-03T10:08:46.127Z,969.13
2022-12-03T10:09:46.464Z,969.12
2022-12-03T10:10:46.845Z,969.09
2022-12-03T10:11:47.208Z,969.11
2022-12-03T10:12:47.584Z,969.07
2022-12-03T10:13:47.939Z,969.05
2022-12-03T10:14:48.316Z,969.01
2022-12-03T10:15:48.667Z,969.01
2022-12-03T10:16:49.085Z,968.99
2022-12-03T10:17:49.317Z,968.98
2022-12-03T10:18:49.707Z,968.95
2022-12-03T10:19:50.978Z,968.98
2022-12-03T10:20:50.238Z,968.96
2022-12-03T10:21:50.509Z,968.96
2022-12-03T10:22:50.866Z,968.97
2022-12-03T10:23:55.280Z,968.99
2022-12-03T10:24:51.935Z,969.00
2022-12-03T10:25:51.819Z,968.99
2022-12-03T10:26:52.170Z,968.99
2022-12-03T10:27:52.550Z,968.96
2022-12-03T10:28:52.781Z,968.92
2022-12-03T10:29:53.448Z,968.95
2022-12-03T10:30:53.577Z,968.93
2022-12-03T10:31:53.830Z,968.92
2022-12-03T10:32:54.081Z,968.96
2022-12-03T10:33:54.472Z,968.89
2022-12-03T10:34:54.914Z,968.89
2022-12-03T10:35:55.013Z,968.86
2022-12-03T10:36:55.264Z,968.85
2022-12-03T10:37:55.623Z,968.88
2022-12-03T10:38:55.863Z,968.87
2022-12-03T10:39:56.725Z,968.84
2022-12-03T10:40:56.605Z,968.86
2022-12-03T10:41:56.995Z,968.81
2022-12-03T10:42:57.245Z,968.80
2022-12-03T10:43:57.634Z,968.82
2022-12-03T10:44:57.875Z,968.80
2022-12-03T10:46:03.515Z,968.81
2022-12-03T10:46:59.723Z,968.79
2022-12-03T10:47:58.995Z,968.79
2022-12-03T10:48:59.246Z,968.77
2022-12-03T10:49:59.636Z,968.79
2022-12-03T10:50:59.886Z,968.75
2022-12-03T10:52:00.267Z,968.70
2022-12-03T10:53:00.525Z,968.67
2022-12-03T10:54:00.934Z,968.68
2022-12-03T10:55:01.259Z,968.68
2022-12-03T10:56:01.500Z,968.69
2022-12-03T10:57:01.760Z,968.63
2022-12-03T10:58:02.148Z,968.67
2022-12-03T10:59:02.389Z,968.69
2022-12-03T11:00:02.770Z,968.68
2022-12-03T11:01:03.067Z,968.67
2022-12-03T11:02:03.345Z,968.69
2022-12-03T11:03:03.619Z,968.65
2022-12-03T11:04:04.073Z,968.66
2022-12-03T11:05:04.170Z,968.63
2022-12-03T11:06:04.561Z,968.63
2022-12-03T11:07:04.917Z,968.62
2022-12-03T11:08:05.373Z,968.63
2022-12-03T11:09:09.040Z,968.58
2022-12-03T11:10:06.053Z,968.57
2022-12-03T11:11:06.303Z,968.58
2022-12-03T11:12:06.691Z,968.60
2022-12-03T11:13:06.951Z,968.55
2022-12-03T11:14:07.326Z,968.58
2022-12-03T11:15:07.569Z,968.57
2022-12-03T11:16:08.019Z,968.58
2022-12-03T11:17:08.194Z,968.56
2022-12-03T11:18:08.585Z,968.57
2022-12-03T11:19:08.835Z,968.56
2022-12-03T11:20:09.225Z,968.55
2022-12-03T11:21:09.576Z,968.51
2022-12-03T11:22:09.963Z,968.51
2022-12-03T11:23:10.213Z,968.47
2022-12-03T11:24:10.597Z,968.48
2022-12-03T11:25:10.846Z,968.45
2022-12-03T11:26:17.083Z,968.42
2022-12-03T11:27:12.577Z,968.42
2022-12-03T11:28:11.904Z,968.41
2022-12-03T11:29:12.148Z,968.46
2022-12-03T11:30:12.539Z,968.36
2022-12-03T11:31:12.801Z,968.38
2022-12-03T11:32:13.178Z,968.38
2022-12-03T11:33:13.437Z,968.40
2022-12-03T11:34:13.845Z,968.39
2022-12-03T11:35:14.069Z,968.38
2022-12-03T11:36:14.430Z,968.35
2022-12-03T11:37:21.709Z,968.33
2022-12-03T11:38:15.080Z,968.32
2022-12-03T11:39:15.310Z,968.36
2022-12-03T11:40:15.758Z,968.34
2022-12-03T11:41:15.984Z,968.35
2022-12-03T11:42:16.371Z,968.35
2022-12-03T11:43:16.621Z,968.36
2022-12-03T11:44:17.062Z,968.34
2022-12-03T11:45:17.263Z,968.35
2022-12-03T11:46:17.666Z,968.35
2022-12-03T11:47:17.882Z,968.33
2022-12-03T11:48:18.272Z,968.35
2022-12-03T11:49:18.613Z,968.30
2022-12-03T11:50:18.983Z,968.29
2022-12-03T11:51:19.334Z,968.33
2022-12-03T11:52:19.704Z,968.31
2022-12-03T11:53:20.065Z,968.28
2022-12-03T11:54:20.445Z,968.26
2022-12-03T11:55:20.672Z,968.28
2022-12-03T11:56:21.045Z,968.21
2022-12-03T11:57:21.285Z,968.22
2022-12-03T11:58:21.669Z,968.17
2022-12-03T11:59:22.027Z,968.18
2022-12-03T12:00:22.412Z,968.15
2022-12-03T12:01:22.746Z,968.13
2022-12-03T12:02:23.116Z,968.13
2022-12-03T12:03:23.601Z,968.10
2022-12-03T12:04:23.934Z,968.05
2022-12-03T12:05:24.159Z,968.01
2022-12-03T12:06:24.538Z,968.06
2022-12-03T12:07:24.950Z,968.00
2022-12-03T12:08:25.079Z,968.00
2022-12-03T12:09:25.328Z,967.95
2022-12-03T12:10:25.718Z,967.94
2022-12-03T12:11:25.970Z,967.92
2022-12-03T12:12:26.356Z,967.92
2022-12-03T12:13:26.610Z,967.94
2022-12-03T12:14:26.989Z,967.93
2022-12-03T12:15:27.453Z,967.89
2022-12-03T12:16:27.704Z,967.86
2022-12-03T12:17:27.959Z,967.87
2022-12-03T12:18:28.331Z,967.84
2022-12-03T12:19:28.673Z,967.87
2022-12-03T12:20:29.029Z,967.87
2022-12-03T12:21:29.363Z,967.89
2022-12-03T12:22:29.732Z,967.90
2022-12-03T12:23:30.091Z,967.90
2022-12-03T12:24:30.465Z,967.84
2022-12-03T12:25:30.813Z,967.80
2022-12-03T12:26:31.183Z,967.82
2022-12-03T12:27:31.434Z,967.79
2022-12-03T12:28:31.814Z,967.76
2022-12-03T12:29:32.067Z,967.77
2022-12-03T12:30:32.434Z,967.74
2022-12-03T12:31:32.720Z,967.79
2022-12-03T12:32:32.974Z,967.82